sensor_id;sensor_type;location;lat;lon;timestamp;P1;durP1;ratioP1;P2;durP2;ratioP2
47335;SDS011;33068;51.990;5.926;2023-02-27T00:00:36;5.35;;;0.70;;
47335;SDS011;33068;51.990;5.926;2023-02-27T00:03:04;1.67;;;0.85;;
47335;SDS011;33068;51.990;5.926;2023-02-27T00:05:31;5.55;;;0.60;;
47335;SDS011;33068;51.990;5.926;2023-02-27T00:07:58;6.13;;;1.25;;
47335;SDS011;33068;51.990;5.926;2023-02-27T00:10:27;3.05;;;0.77;;
47335;SDS011;33068;51.990;5.926;2023-02-27T00:12:54;1.83;;;0.90;;
47335;SDS011;33068;51.990;5.926;2023-02-27T00:15:21;4.35;;;0.68;;
47335;SDS011;33068;51.990;5.926;2023-02-27T00:17:48;3.53;;;0.60;;
47335;SDS011;33068;51.990;5.926;2023-02-27T00:20:16;3.25;;;1.02;;
47335;SDS011;33068;51.990;5.926;2023-02-27T00:22:44;2.65;;;0.60;;
47335;SDS011;33068;51.990;5.926;2023-02-27T00:25:11;5.65;;;0.85;;
47335;SDS011;33068;51.990;5.926;2023-02-27T00:27:40;5.18;;;1.10;;
47335;SDS011;33068;51.990;5.926;2023-02-27T00:30:09;6.45;;;0.63;;
47335;SDS011;33068;51.990;5.926;2023-02-27T00:32:38;8.02;;;1.13;;
47335;SDS011;33068;51.990;5.926;2023-02-27T00:35:06;5.70;;;1.00;;
47335;SDS011;33068;51.990;5.926;2023-02-27T00:37:35;5.25;;;1.13;;
47335;SDS011;33068;51.990;5.926;2023-02-27T00:40:03;3.15;;;0.85;;
47335;SDS011;33068;51.990;5.926;2023-02-27T00:42:31;6.93;;;1.00;;
47335;SDS011;33068;51.990;5.926;2023-02-27T00:44:59;2.53;;;0.95;;
47335;SDS011;33068;51.990;5.926;2023-02-27T00:47:29;3.97;;;0.95;;
47335;SDS011;33068;51.990;5.926;2023-02-27T00:49:56;4.85;;;0.63;;
47335;SDS011;33068;51.990;5.926;2023-02-27T00:52:24;4.47;;;0.70;;
47335;SDS011;33068;51.990;5.926;2023-02-27T00:54:51;3.50;;;0.57;;
47335;SDS011;33068;51.990;5.926;2023-02-27T00:57:18;2.78;;;0.80;;
47335;SDS011;33068;51.990;5.926;2023-02-27T00:59:46;2.95;;;0.90;;
47335;SDS011;33068;51.990;5.926;2023-02-27T01:02:14;2.03;;;0.63;;
47335;SDS011;33068;51.990;5.926;2023-02-27T01:04:41;2.70;;;0.50;;
47335;SDS011;33068;51.990;5.926;2023-02-27T01:07:09;2.75;;;0.70;;
47335;SDS011;33068;51.990;5.926;2023-02-27T01:09:36;7.38;;;1.00;;
47335;SDS011;33068;51.990;5.926;2023-02-27T01:12:03;5.28;;;0.70;;
47335;SDS011;33068;51.990;5.926;2023-02-27T01:14:31;2.78;;;0.82;;
47335;SDS011;33068;51.990;5.926;2023-02-27T01:16:58;5.38;;;0.73;;
47335;SDS011;33068;51.990;5.926;2023-02-27T01:19:26;5.13;;;0.90;;
47335;SDS011;33068;51.990;5.926;2023-02-27T01:21:53;4.65;;;0.50;;
47335;SDS011;33068;51.990;5.926;2023-02-27T01:24:20;2.33;;;0.70;;
47335;SDS011;33068;51.990;5.926;2023-02-27T01:26:47;3.03;;;0.50;;
47335;SDS011;33068;51.990;5.926;2023-02-27T01:29:16;1.38;;;0.60;;
47335;SDS011;33068;51.990;5.926;2023-02-27T01:31:44;2.88;;;0.63;;
47335;SDS011;33068;51.990;5.926;2023-02-27T01:34:11;3.42;;;0.57;;
47335;SDS011;33068;51.990;5.926;2023-02-27T01:36:40;2.78;;;0.82;;
47335;SDS011;33068;51.990;5.926;2023-02-27T01:39:07;6.20;;;0.70;;
47335;SDS011;33068;51.990;5.926;2023-02-27T01:41:34;3.22;;;0.70;;
47335;SDS011;33068;51.990;5.926;2023-02-27T01:44:03;5.85;;;1.25;;
47335;SDS011;33068;51.990;5.926;2023-02-27T01:46:35;2.40;;;0.40;;
47335;SDS011;33068;51.990;5.926;2023-02-27T01:49:04;2.83;;;0.65;;
47335;SDS011;33068;51.990;5.926;2023-02-27T01:51:36;5.72;;;0.73;;
47335;SDS011;33068;51.990;5.926;2023-02-27T01:54:07;1.88;;;0.50;;
47335;SDS011;33068;51.990;5.926;2023-02-27T01:56:36;6.13;;;0.70;;
47335;SDS011;33068;51.990;5.926;2023-02-27T01:59:05;3.28;;;0.63;;
47335;SDS011;33068;51.990;5.926;2023-02-27T02:04:08;9.00;;;1.50;;
47335;SDS011;33068;51.990;5.926;2023-02-27T02:06:41;5.88;;;0.60;;
47335;SDS011;33068;51.990;5.926;2023-02-27T02:09:27;3.53;;;0.97;;
47335;SDS011;33068;51.990;5.926;2023-02-27T02:11:55;2.83;;;1.17;;
47335;SDS011;33068;51.990;5.926;2023-02-27T02:14:23;13.23;;;1.00;;
47335;SDS011;33068;51.990;5.926;2023-02-27T02:16:53;7.25;;;0.80;;
47335;SDS011;33068;51.990;5.926;2023-02-27T02:22:31;1.88;;;0.80;;
47335;SDS011;33068;51.990;5.926;2023-02-27T02:25:41;6.95;;;1.00;;
47335;SDS011;33068;51.990;5.926;2023-02-27T02:28:37;3.80;;;1.23;;
47335;SDS011;33068;51.990;5.926;2023-02-27T02:31:43;5.07;;;1.33;;
47335;SDS011;33068;51.990;5.926;2023-02-27T02:40:40;2.60;;;0.88;;
47335;SDS011;33068;51.990;5.926;2023-02-27T02:43:17;3.90;;;0.82;;
47335;SDS011;33068;51.990;5.926;2023-02-27T02:45:50;3.33;;;0.75;;
47335;SDS011;33068;51.990;5.926;2023-02-27T02:48:27;4.22;;;0.98;;
47335;SDS011;33068;51.990;5.926;2023-02-27T02:51:00;4.80;;;1.25;;
47335;SDS011;33068;51.990;5.926;2023-02-27T02:53:33;2.97;;;0.55;;
47335;SDS011;33068;51.990;5.926;2023-02-27T02:56:11;4.65;;;0.80;;
47335;SDS011;33068;51.990;5.926;2023-02-27T02:58:44;1.77;;;0.90;;
47335;SDS011;33068;51.990;5.926;2023-02-27T03:01:16;3.35;;;0.77;;
47335;SDS011;33068;51.990;5.926;2023-02-27T03:03:50;6.70;;;0.85;;
47335;SDS011;33068;51.990;5.926;2023-02-27T03:06:22;3.05;;;1.00;;
47335;SDS011;33068;51.990;5.926;2023-02-27T03:08:56;7.40;;;0.85;;
47335;SDS011;33068;51.990;5.926;2023-02-27T03:11:28;6.93;;;1.02;;
47335;SDS011;33068;51.990;5.926;2023-02-27T03:13:59;5.45;;;1.10;;
47335;SDS011;33068;51.990;5.926;2023-02-27T03:16:32;2.58;;;0.82;;
47335;SDS011;33068;51.990;5.926;2023-02-27T03:19:07;6.82;;;1.15;;
47335;SDS011;33068;51.990;5.926;2023-02-27T03:21:40;5.88;;;0.70;;
47335;SDS011;33068;51.990;5.926;2023-02-27T03:24:13;5.30;;;1.20;;
47335;SDS011;33068;51.990;5.926;2023-02-27T03:26:48;8.55;;;1.30;;
47335;SDS011;33068;51.990;5.926;2023-02-27T03:29:18;3.47;;;1.10;;
47335;SDS011;33068;51.990;5.926;2023-02-27T03:31:52;3.10;;;0.95;;
47335;SDS011;33068;51.990;5.926;2023-02-27T03:34:26;4.65;;;1.10;;
47335;SDS011;33068;51.990;5.926;2023-02-27T03:36:59;2.92;;;1.05;;
47335;SDS011;33068;51.990;5.926;2023-02-27T03:39:34;4.93;;;1.05;;
47335;SDS011;33068;51.990;5.926;2023-02-27T03:42:12;2.13;;;0.75;;
47335;SDS011;33068;51.990;5.926;2023-02-27T03:45:12;5.70;;;1.00;;
47335;SDS011;33068;51.990;5.926;2023-02-27T03:47:46;3.47;;;1.13;;
47335;SDS011;33068;51.990;5.926;2023-02-27T03:50:14;5.28;;;1.20;;
47335;SDS011;33068;51.990;5.926;2023-02-27T03:52:42;2.97;;;0.88;;
47335;SDS011;33068;51.990;5.926;2023-02-27T03:55:10;2.75;;;0.60;;
47335;SDS011;33068;51.990;5.926;2023-02-27T03:57:42;2.80;;;1.05;;
47335;SDS011;33068;51.990;5.926;2023-02-27T04:00:12;5.47;;;1.27;;
47335;SDS011;33068;51.990;5.926;2023-02-27T04:02:46;3.45;;;1.20;;
47335;SDS011;33068;51.990;5.926;2023-02-27T04:05:19;1.08;;;0.70;;
47335;SDS011;33068;51.990;5.926;2023-02-27T04:08:14;2.10;;;1.13;;
47335;SDS011;33068;51.990;5.926;2023-02-27T04:13:36;2.30;;;0.98;;
47335;SDS011;33068;51.990;5.926;2023-02-27T04:19:17;1.90;;;0.80;;
47335;SDS011;33068;51.990;5.926;2023-02-27T04:22:00;6.22;;;0.93;;
47335;SDS011;33068;51.990;5.926;2023-02-27T04:24:34;1.67;;;1.00;;
47335;SDS011;33068;51.990;5.926;2023-02-27T04:27:11;7.40;;;0.93;;
47335;SDS011;33068;51.990;5.926;2023-02-27T04:29:51;3.35;;;0.93;;
47335;SDS011;33068;51.990;5.926;2023-02-27T04:32:21;1.95;;;1.05;;
47335;SDS011;33068;51.990;5.926;2023-02-27T04:34:57;8.07;;;1.25;;
47335;SDS011;33068;51.990;5.926;2023-02-27T04:37:28;4.88;;;1.35;;
47335;SDS011;33068;51.990;5.926;2023-02-27T04:40:04;4.40;;;0.95;;
47335;SDS011;33068;51.990;5.926;2023-02-27T04:42:36;4.38;;;1.33;;
47335;SDS011;33068;51.990;5.926;2023-02-27T04:45:10;4.80;;;1.20;;
47335;SDS011;33068;51.990;5.926;2023-02-27T04:47:42;5.88;;;1.23;;
47335;SDS011;33068;51.990;5.926;2023-02-27T04:50:13;6.50;;;0.90;;
47335;SDS011;33068;51.990;5.926;2023-02-27T04:52:49;2.47;;;1.02;;
47335;SDS011;33068;51.990;5.926;2023-02-27T04:55:21;3.70;;;1.02;;
47335;SDS011;33068;51.990;5.926;2023-02-27T04:57:52;3.63;;;1.27;;
47335;SDS011;33068;51.990;5.926;2023-02-27T05:00:24;8.27;;;1.10;;
47335;SDS011;33068;51.990;5.926;2023-02-27T05:02:55;6.05;;;1.52;;
47335;SDS011;33068;51.990;5.926;2023-02-27T05:05:27;6.38;;;1.40;;
47335;SDS011;33068;51.990;5.926;2023-02-27T05:07:58;6.72;;;1.63;;
47335;SDS011;33068;51.990;5.926;2023-02-27T05:10:32;6.65;;;1.77;;
47335;SDS011;33068;51.990;5.926;2023-02-27T05:13:03;4.47;;;1.02;;
47335;SDS011;33068;51.990;5.926;2023-02-27T05:15:36;5.43;;;1.33;;
47335;SDS011;33068;51.990;5.926;2023-02-27T05:18:08;3.55;;;1.00;;
47335;SDS011;33068;51.990;5.926;2023-02-27T05:20:41;7.35;;;1.92;;
47335;SDS011;33068;51.990;5.926;2023-02-27T05:23:15;4.18;;;1.60;;
47335;SDS011;33068;51.990;5.926;2023-02-27T05:25:48;3.22;;;1.13;;
47335;SDS011;33068;51.990;5.926;2023-02-27T05:28:22;3.58;;;1.50;;
47335;SDS011;33068;51.990;5.926;2023-02-27T05:30:57;4.80;;;1.58;;
47335;SDS011;33068;51.990;5.926;2023-02-27T05:33:31;4.55;;;1.25;;
47335;SDS011;33068;51.990;5.926;2023-02-27T05:36:02;5.38;;;1.50;;
47335;SDS011;33068;51.990;5.926;2023-02-27T05:38:35;9.43;;;1.63;;
47335;SDS011;33068;51.990;5.926;2023-02-27T05:41:06;7.30;;;1.55;;
47335;SDS011;33068;51.990;5.926;2023-02-27T05:43:36;1.83;;;1.33;;
47335;SDS011;33068;51.990;5.926;2023-02-27T05:46:09;2.60;;;1.27;;
47335;SDS011;33068;51.990;5.926;2023-02-27T05:48:40;2.55;;;1.35;;
47335;SDS011;33068;51.990;5.926;2023-02-27T05:51:11;7.57;;;1.48;;
47335;SDS011;33068;51.990;5.926;2023-02-27T05:53:43;6.00;;;2.05;;
47335;SDS011;33068;51.990;5.926;2023-02-27T05:56:15;5.88;;;1.95;;
47335;SDS011;33068;51.990;5.926;2023-02-27T05:58:48;2.78;;;1.55;;
47335;SDS011;33068;51.990;5.926;2023-02-27T06:01:21;6.82;;;1.63;;
47335;SDS011;33068;51.990;5.926;2023-02-27T06:03:48;5.15;;;1.90;;
47335;SDS011;33068;51.990;5.926;2023-02-27T06:06:16;4.63;;;1.90;;
47335;SDS011;33068;51.990;5.926;2023-02-27T06:08:44;10.45;;;3.00;;
47335;SDS011;33068;51.990;5.926;2023-02-27T06:11:12;7.78;;;2.03;;
47335;SDS011;33068;51.990;5.926;2023-02-27T06:13:39;9.45;;;2.90;;
47335;SDS011;33068;51.990;5.926;2023-02-27T06:16:07;7.60;;;2.15;;
47335;SDS011;33068;51.990;5.926;2023-02-27T06:18:37;4.00;;;1.70;;
47335;SDS011;33068;51.990;5.926;2023-02-27T06:21:04;5.97;;;1.27;;
47335;SDS011;33068;51.990;5.926;2023-02-27T06:23:31;5.03;;;1.38;;
47335;SDS011;33068;51.990;5.926;2023-02-27T06:25:58;6.22;;;1.63;;
47335;SDS011;33068;51.990;5.926;2023-02-27T06:28:25;7.45;;;1.48;;
47335;SDS011;33068;51.990;5.926;2023-02-27T06:30:52;3.53;;;1.10;;
47335;SDS011;33068;51.990;5.926;2023-02-27T06:33:21;9.10;;;1.42;;
47335;SDS011;33068;51.990;5.926;2023-02-27T06:35:50;5.75;;;1.17;;
47335;SDS011;33068;51.990;5.926;2023-02-27T06:38:17;3.13;;;1.35;;
47335;SDS011;33068;51.990;5.926;2023-02-27T06:40:44;4.68;;;1.33;;
47335;SDS011;33068;51.990;5.926;2023-02-27T06:43:11;5.30;;;1.30;;
47335;SDS011;33068;51.990;5.926;2023-02-27T06:45:39;7.47;;;1.25;;
47335;SDS011;33068;51.990;5.926;2023-02-27T06:48:06;3.38;;;1.25;;
47335;SDS011;33068;51.990;5.926;2023-02-27T06:50:33;6.93;;;1.58;;
47335;SDS011;33068;51.990;5.926;2023-02-27T06:53:01;4.82;;;1.35;;
47335;SDS011;33068;51.990;5.926;2023-02-27T06:55:28;5.18;;;1.73;;
47335;SDS011;33068;51.990;5.926;2023-02-27T06:57:55;8.57;;;2.22;;
47335;SDS011;33068;51.990;5.926;2023-02-27T07:00:22;2.70;;;1.40;;
47335;SDS011;33068;51.990;5.926;2023-02-27T07:02:50;2.33;;;1.23;;
47335;SDS011;33068;51.990;5.926;2023-02-27T07:05:17;2.85;;;1.83;;
47335;SDS011;33068;51.990;5.926;2023-02-27T07:07:44;5.45;;;1.38;;
47335;SDS011;33068;51.990;5.926;2023-02-27T07:10:15;7.22;;;1.88;;
47335;SDS011;33068;51.990;5.926;2023-02-27T07:12:42;5.40;;;2.22;;
47335;SDS011;33068;51.990;5.926;2023-02-27T07:15:10;4.45;;;1.23;;
47335;SDS011;33068;51.990;5.926;2023-02-27T07:17:37;4.15;;;2.17;;
47335;SDS011;33068;51.990;5.926;2023-02-27T07:20:04;4.40;;;2.28;;
47335;SDS011;33068;51.990;5.926;2023-02-27T07:22:33;7.60;;;1.67;;
47335;SDS011;33068;51.990;5.926;2023-02-27T07:25:00;4.60;;;2.00;;
47335;SDS011;33068;51.990;5.926;2023-02-27T07:27:29;4.78;;;1.73;;
47335;SDS011;33068;51.990;5.926;2023-02-27T07:29:56;9.65;;;2.33;;
47335;SDS011;33068;51.990;5.926;2023-02-27T07:32:23;8.90;;;2.00;;
47335;SDS011;33068;51.990;5.926;2023-02-27T07:34:50;6.43;;;1.67;;
47335;SDS011;33068;51.990;5.926;2023-02-27T07:37:17;5.85;;;2.10;;
47335;SDS011;33068;51.990;5.926;2023-02-27T07:39:44;5.20;;;2.25;;
47335;SDS011;33068;51.990;5.926;2023-02-27T07:42:11;7.07;;;1.67;;
47335;SDS011;33068;51.990;5.926;2023-02-27T07:44:40;4.78;;;1.75;;
47335;SDS011;33068;51.990;5.926;2023-02-27T07:47:07;4.88;;;1.95;;
47335;SDS011;33068;51.990;5.926;2023-02-27T07:49:35;6.85;;;2.05;;
47335;SDS011;33068;51.990;5.926;2023-02-27T07:52:02;6.47;;;1.45;;
47335;SDS011;33068;51.990;5.926;2023-02-27T07:54:29;6.32;;;1.83;;
47335;SDS011;33068;51.990;5.926;2023-02-27T07:56:56;4.65;;;2.05;;
47335;SDS011;33068;51.990;5.926;2023-02-27T07:59:23;1.98;;;1.42;;
47335;SDS011;33068;51.990;5.926;2023-02-27T08:01:52;3.30;;;1.50;;
47335;SDS011;33068;51.990;5.926;2023-02-27T08:04:19;4.45;;;2.15;;
47335;SDS011;33068;51.990;5.926;2023-02-27T08:06:46;4.93;;;1.83;;
47335;SDS011;33068;51.990;5.926;2023-02-27T08:09:13;5.18;;;1.75;;
47335;SDS011;33068;51.990;5.926;2023-02-27T08:11:40;2.67;;;1.42;;
47335;SDS011;33068;51.990;5.926;2023-02-27T08:14:07;9.23;;;1.75;;
47335;SDS011;33068;51.990;5.926;2023-02-27T08:16:35;5.70;;;1.52;;
47335;SDS011;33068;51.990;5.926;2023-02-27T08:19:03;4.80;;;2.03;;
47335;SDS011;33068;51.990;5.926;2023-02-27T08:21:30;5.07;;;1.30;;
47335;SDS011;33068;51.990;5.926;2023-02-27T08:23:57;4.68;;;1.00;;
47335;SDS011;33068;51.990;5.926;2023-02-27T08:26:24;7.57;;;1.55;;
47335;SDS011;33068;51.990;5.926;2023-02-27T08:28:51;6.93;;;1.55;;
47335;SDS011;33068;51.990;5.926;2023-02-27T08:31:21;3.72;;;1.48;;
47335;SDS011;33068;51.990;5.926;2023-02-27T08:33:49;3.20;;;1.58;;
47335;SDS011;33068;51.990;5.926;2023-02-27T08:36:17;3.25;;;1.38;;
47335;SDS011;33068;51.990;5.926;2023-02-27T08:38:44;9.13;;;1.52;;
47335;SDS011;33068;51.990;5.926;2023-02-27T08:41:11;3.45;;;0.90;;
47335;SDS011;33068;51.990;5.926;2023-02-27T08:43:39;2.88;;;0.70;;
47335;SDS011;33068;51.990;5.926;2023-02-27T08:46:06;6.50;;;0.77;;
47335;SDS011;33068;51.990;5.926;2023-02-27T08:48:33;5.03;;;0.80;;
47335;SDS011;33068;51.990;5.926;2023-02-27T08:51:02;4.47;;;0.95;;
47335;SDS011;33068;51.990;5.926;2023-02-27T08:53:31;4.53;;;1.00;;
47335;SDS011;33068;51.990;5.926;2023-02-27T08:55:58;4.55;;;0.85;;
47335;SDS011;33068;51.990;5.926;2023-02-27T08:58:25;3.30;;;0.77;;
47335;SDS011;33068;51.990;5.926;2023-02-27T09:00:52;2.97;;;0.95;;
47335;SDS011;33068;51.990;5.926;2023-02-27T09:03:19;6.38;;;0.60;;
47335;SDS011;33068;51.990;5.926;2023-02-27T09:05:47;3.47;;;0.55;;
47335;SDS011;33068;51.990;5.926;2023-02-27T09:08:14;1.83;;;0.75;;
47335;SDS011;33068;51.990;5.926;2023-02-27T09:10:43;3.85;;;0.50;;
47335;SDS011;33068;51.990;5.926;2023-02-27T09:13:10;2.03;;;0.45;;
47335;SDS011;33068;51.990;5.926;2023-02-27T09:15:37;3.58;;;0.75;;
47335;SDS011;33068;51.990;5.926;2023-02-27T09:18:04;3.90;;;0.60;;
47335;SDS011;33068;51.990;5.926;2023-02-27T09:20:32;8.52;;;1.05;;
47335;SDS011;33068;51.990;5.926;2023-02-27T09:23:00;2.25;;;0.47;;
47335;SDS011;33068;51.990;5.926;2023-02-27T09:25:28;2.50;;;0.55;;
47335;SDS011;33068;51.990;5.926;2023-02-27T09:27:57;5.57;;;0.73;;
47335;SDS011;33068;51.990;5.926;2023-02-27T09:30:24;2.60;;;0.93;;
47335;SDS011;33068;51.990;5.926;2023-02-27T09:32:51;2.97;;;0.60;;
47335;SDS011;33068;51.990;5.926;2023-02-27T09:35:18;3.90;;;0.40;;
47335;SDS011;33068;51.990;5.926;2023-02-27T09:37:45;2.88;;;0.50;;
47335;SDS011;33068;51.990;5.926;2023-02-27T09:40:15;1.02;;;0.52;;
47335;SDS011;33068;51.990;5.926;2023-02-27T09:42:47;2.15;;;0.55;;
47335;SDS011;33068;51.990;5.926;2023-02-27T09:45:20;3.28;;;0.70;;
47335;SDS011;33068;51.990;5.926;2023-02-27T09:47:50;4.85;;;1.33;;
47335;SDS011;33068;51.990;5.926;2023-02-27T09:50:28;4.82;;;0.70;;
47335;SDS011;33068;51.990;5.926;2023-02-27T09:53:02;4.22;;;0.50;;
47335;SDS011;33068;51.990;5.926;2023-02-27T09:55:30;2.03;;;0.47;;
47335;SDS011;33068;51.990;5.926;2023-02-27T09:58:02;2.80;;;0.60;;
47335;SDS011;33068;51.990;5.926;2023-02-27T10:00:38;1.65;;;0.30;;
47335;SDS011;33068;51.990;5.926;2023-02-27T10:03:19;3.78;;;0.40;;
47335;SDS011;33068;51.990;5.926;2023-02-27T10:05:59;3.88;;;0.45;;
47335;SDS011;33068;51.990;5.926;2023-02-27T10:08:40;5.25;;;0.50;;
47335;SDS011;33068;51.990;5.926;2023-02-27T10:11:12;3.45;;;0.40;;
47335;SDS011;33068;51.990;5.926;2023-02-27T10:13:46;3.28;;;0.35;;
47335;SDS011;33068;51.990;5.926;2023-02-27T10:16:25;3.85;;;0.40;;
47335;SDS011;33068;51.990;5.926;2023-02-27T10:18:54;3.03;;;0.30;;
47335;SDS011;33068;51.990;5.926;2023-02-27T10:21:25;4.93;;;0.40;;
47335;SDS011;33068;51.990;5.926;2023-02-27T10:23:57;2.60;;;0.43;;
47335;SDS011;33068;51.990;5.926;2023-02-27T10:26:30;3.88;;;0.65;;
47335;SDS011;33068;51.990;5.926;2023-02-27T10:29:08;2.97;;;0.30;;
47335;SDS011;33068;51.990;5.926;2023-02-27T10:31:44;2.75;;;0.60;;
47335;SDS011;33068;51.990;5.926;2023-02-27T10:34:13;1.67;;;0.45;;
47335;SDS011;33068;51.990;5.926;2023-02-27T10:36:42;5.80;;;0.35;;
47335;SDS011;33068;51.990;5.926;2023-02-27T10:39:11;2.88;;;0.50;;
47335;SDS011;33068;51.990;5.926;2023-02-27T10:41:42;3.53;;;0.68;;
47335;SDS011;33068;51.990;5.926;2023-02-27T10:44:13;3.20;;;1.10;;
47335;SDS011;33068;51.990;5.926;2023-02-27T10:46:41;2.95;;;0.50;;
47335;SDS011;33068;51.990;5.926;2023-02-27T10:49:12;2.50;;;0.50;;
47335;SDS011;33068;51.990;5.926;2023-02-27T10:51:43;3.83;;;0.68;;
47335;SDS011;33068;51.990;5.926;2023-02-27T10:54:15;4.65;;;0.60;;
47335;SDS011;33068;51.990;5.926;2023-02-27T10:56:48;1.60;;;0.50;;
47335;SDS011;33068;51.990;5.926;2023-02-27T10:59:18;3.70;;;0.80;;
47335;SDS011;33068;51.990;5.926;2023-02-27T11:01:48;2.83;;;0.70;;
47335;SDS011;33068;51.990;5.926;2023-02-27T11:04:25;2.05;;;0.65;;
47335;SDS011;33068;51.990;5.926;2023-02-27T11:09:23;1.67;;;0.22;;
47335;SDS011;33068;51.990;5.926;2023-02-27T11:11:52;1.67;;;0.57;;
47335;SDS011;33068;51.990;5.926;2023-02-27T11:14:22;2.92;;;0.73;;
47335;SDS011;33068;51.990;5.926;2023-02-27T11:16:57;2.58;;;0.50;;
47335;SDS011;33068;51.990;5.926;2023-02-27T11:19:29;1.85;;;0.50;;
47335;SDS011;33068;51.990;5.926;2023-02-27T11:22:00;1.35;;;0.40;;
47335;SDS011;33068;51.990;5.926;2023-02-27T11:24:30;0.57;;;0.30;;
47335;SDS011;33068;51.990;5.926;2023-02-27T11:26:58;0.82;;;0.10;;
47335;SDS011;33068;51.990;5.926;2023-02-27T11:29:27;4.00;;;0.38;;
47335;SDS011;33068;51.990;5.926;2023-02-27T11:31:56;2.92;;;0.20;;
47335;SDS011;33068;51.990;5.926;2023-02-27T11:34:28;1.27;;;0.30;;
47335;SDS011;33068;51.990;5.926;2023-02-27T11:36:58;3.17;;;0.40;;
47335;SDS011;33068;51.990;5.926;2023-02-27T11:39:30;1.95;;;0.60;;
47335;SDS011;33068;51.990;5.926;2023-02-27T11:44:52;1.30;;;0.30;;
47335;SDS011;33068;51.990;5.926;2023-02-27T11:47:24;1.67;;;0.30;;
47335;SDS011;33068;51.990;5.926;2023-02-27T11:49:59;1.75;;;0.25;;
47335;SDS011;33068;51.990;5.926;2023-02-27T11:52:48;1.40;;;0.30;;
47335;SDS011;33068;51.990;5.926;2023-02-27T11:55:19;1.10;;;0.40;;
47335;SDS011;33068;51.990;5.926;2023-02-27T11:57:49;2.45;;;0.80;;
47335;SDS011;33068;51.990;5.926;2023-02-27T12:00:22;1.33;;;0.40;;
47335;SDS011;33068;51.990;5.926;2023-02-27T12:02:56;3.85;;;0.63;;
47335;SDS011;33068;51.990;5.926;2023-02-27T12:05:29;1.58;;;0.40;;
47335;SDS011;33068;51.990;5.926;2023-02-27T12:08:01;1.13;;;0.30;;
47335;SDS011;33068;51.990;5.926;2023-02-27T12:10:34;2.72;;;0.45;;
47335;SDS011;33068;51.990;5.926;2023-02-27T12:13:10;1.75;;;0.60;;
47335;SDS011;33068;51.990;5.926;2023-02-27T12:15:43;1.80;;;0.40;;
47335;SDS011;33068;51.990;5.926;2023-02-27T12:18:14;0.70;;;0.40;;
47335;SDS011;33068;51.990;5.926;2023-02-27T12:20:47;0.70;;;0.22;;
47335;SDS011;33068;51.990;5.926;2023-02-27T12:23:21;3.63;;;0.32;;
47335;SDS011;33068;51.990;5.926;2023-02-27T12:25:55;1.45;;;0.30;;
47335;SDS011;33068;51.990;5.926;2023-02-27T12:28:36;2.75;;;0.40;;
47335;SDS011;33068;51.990;5.926;2023-02-27T12:34:10;2.05;;;0.50;;
47335;SDS011;33068;51.990;5.926;2023-02-27T12:36:45;2.20;;;0.40;;
47335;SDS011;33068;51.990;5.926;2023-02-27T12:39:14;1.85;;;0.38;;
47335;SDS011;33068;51.990;5.926;2023-02-27T12:41:51;3.28;;;0.50;;
47335;SDS011;33068;51.990;5.926;2023-02-27T12:44:48;1.10;;;0.38;;
47335;SDS011;33068;51.990;5.926;2023-02-27T12:50:04;1.27;;;0.30;;
47335;SDS011;33068;51.990;5.926;2023-02-27T12:52:39;1.08;;;0.50;;
47335;SDS011;33068;51.990;5.926;2023-02-27T12:55:23;0.73;;;0.30;;
47335;SDS011;33068;51.990;5.926;2023-02-27T13:00:48;3.58;;;0.45;;
47335;SDS011;33068;51.990;5.926;2023-02-27T13:03:20;1.13;;;0.50;;
47335;SDS011;33068;51.990;5.926;2023-02-27T13:05:54;4.68;;;0.50;;
47335;SDS011;33068;51.990;5.926;2023-02-27T13:11:24;1.30;;;0.80;;
47335;SDS011;33068;51.990;5.926;2023-02-27T13:16:28;3.55;;;0.50;;
47335;SDS011;33068;51.990;5.926;2023-02-27T13:19:03;2.60;;;0.63;;
47335;SDS011;33068;51.990;5.926;2023-02-27T13:21:37;1.23;;;0.50;;
47335;SDS011;33068;51.990;5.926;2023-02-27T13:26:57;1.65;;;0.50;;
47335;SDS011;33068;51.990;5.926;2023-02-27T13:29:33;2.05;;;0.47;;
47335;SDS011;33068;51.990;5.926;2023-02-27T13:32:05;1.33;;;0.50;;
47335;SDS011;33068;51.990;5.926;2023-02-27T13:34:44;3.13;;;0.50;;
47335;SDS011;33068;51.990;5.926;2023-02-27T13:37:16;1.83;;;0.40;;
47335;SDS011;33068;51.990;5.926;2023-02-27T13:39:50;3.30;;;0.45;;
47335;SDS011;33068;51.990;5.926;2023-02-27T13:48:02;1.27;;;0.60;;
47335;SDS011;33068;51.990;5.926;2023-02-27T13:50:54;2.70;;;0.60;;
47335;SDS011;33068;51.990;5.926;2023-02-27T13:53:23;2.05;;;0.60;;
47335;SDS011;33068;51.990;5.926;2023-02-27T13:55:51;1.15;;;0.85;;
47335;SDS011;33068;51.990;5.926;2023-02-27T13:58:21;1.63;;;0.40;;
47335;SDS011;33068;51.990;5.926;2023-02-27T14:00:57;3.97;;;0.57;;
47335;SDS011;33068;51.990;5.926;2023-02-27T14:03:27;2.65;;;0.80;;
47335;SDS011;33068;51.990;5.926;2023-02-27T14:05:57;2.40;;;0.65;;
47335;SDS011;33068;51.990;5.926;2023-02-27T14:08:30;3.00;;;0.47;;
47335;SDS011;33068;51.990;5.926;2023-02-27T14:11:11;0.98;;;0.45;;
47335;SDS011;33068;51.990;5.926;2023-02-27T14:13:59;3.65;;;0.70;;
47335;SDS011;33068;51.990;5.926;2023-02-27T14:19:26;1.67;;;0.50;;
47335;SDS011;33068;51.990;5.926;2023-02-27T14:25:35;2.35;;;0.60;;
47335;SDS011;33068;51.990;5.926;2023-02-27T14:28:10;6.25;;;0.70;;
47335;SDS011;33068;51.990;5.926;2023-02-27T14:30:50;2.42;;;0.50;;
47335;SDS011;33068;51.990;5.926;2023-02-27T14:33:20;4.55;;;0.50;;
47335;SDS011;33068;51.990;5.926;2023-02-27T14:35:54;3.15;;;0.60;;
47335;SDS011;33068;51.990;5.926;2023-02-27T14:38:24;3.92;;;0.68;;
47335;SDS011;33068;51.990;5.926;2023-02-27T14:41:05;2.40;;;0.82;;
47335;SDS011;33068;51.990;5.926;2023-02-27T14:43:39;3.88;;;0.65;;
47335;SDS011;33068;51.990;5.926;2023-02-27T14:46:11;3.97;;;0.55;;
47335;SDS011;33068;51.990;5.926;2023-02-27T14:48:44;2.50;;;0.52;;
47335;SDS011;33068;51.990;5.926;2023-02-27T14:51:12;4.00;;;0.77;;
47335;SDS011;33068;51.990;5.926;2023-02-27T14:53:41;2.58;;;0.50;;
47335;SDS011;33068;51.990;5.926;2023-02-27T14:56:15;2.00;;;0.77;;
47335;SDS011;33068;51.990;5.926;2023-02-27T15:01:13;2.83;;;0.75;;
47335;SDS011;33068;51.990;5.926;2023-02-27T15:03:43;2.85;;;0.73;;
47335;SDS011;33068;51.990;5.926;2023-02-27T15:06:14;2.38;;;0.73;;
47335;SDS011;33068;51.990;5.926;2023-02-27T15:08:44;3.22;;;0.80;;
47335;SDS011;33068;51.990;5.926;2023-02-27T15:11:16;5.40;;;1.10;;
47335;SDS011;33068;51.990;5.926;2023-02-27T15:13:45;5.85;;;0.80;;
47335;SDS011;33068;51.990;5.926;2023-02-27T15:16:25;4.10;;;0.80;;
47335;SDS011;33068;51.990;5.926;2023-02-27T15:19:00;2.08;;;0.68;;
47335;SDS011;33068;51.990;5.926;2023-02-27T15:21:31;1.85;;;0.73;;
47335;SDS011;33068;51.990;5.926;2023-02-27T15:24:04;1.38;;;0.50;;
47335;SDS011;33068;51.990;5.926;2023-02-27T15:26:34;2.25;;;0.50;;
47335;SDS011;33068;51.990;5.926;2023-02-27T15:29:04;2.38;;;1.05;;
47335;SDS011;33068;51.990;5.926;2023-02-27T15:31:33;2.75;;;0.70;;
47335;SDS011;33068;51.990;5.926;2023-02-27T15:34:01;5.22;;;0.70;;
47335;SDS011;33068;51.990;5.926;2023-02-27T15:36:30;2.35;;;0.60;;
47335;SDS011;33068;51.990;5.926;2023-02-27T15:39:06;1.35;;;0.50;;
47335;SDS011;33068;51.990;5.926;2023-02-27T15:41:42;2.92;;;0.50;;
47335;SDS011;33068;51.990;5.926;2023-02-27T15:44:13;2.15;;;0.50;;
47335;SDS011;33068;51.990;5.926;2023-02-27T15:46:41;1.17;;;0.47;;
47335;SDS011;33068;51.990;5.926;2023-02-27T15:49:12;2.28;;;0.32;;
47335;SDS011;33068;51.990;5.926;2023-02-27T15:51:42;1.58;;;0.50;;
47335;SDS011;33068;51.990;5.926;2023-02-27T15:54:12;3.10;;;0.68;;
47335;SDS011;33068;51.990;5.926;2023-02-27T15:56:39;1.83;;;0.65;;
47335;SDS011;33068;51.990;5.926;2023-02-27T15:59:08;3.97;;;0.70;;
47335;SDS011;33068;51.990;5.926;2023-02-27T16:01:40;5.63;;;0.75;;
47335;SDS011;33068;51.990;5.926;2023-02-27T16:04:13;1.95;;;0.60;;
47335;SDS011;33068;51.990;5.926;2023-02-27T16:06:46;6.90;;;0.80;;